Time;durP1;ratioP1;P1;durP2;ratioP2;P2;SDS_P1;SDS_P2;PMS_P1;PMS_P2;Temp;Humidity;BMP_temperature;BMP_pressure;BME280_temperature;BME280_humidity;BME280_pressure;Samples;Min_cycle;Max_cycle;Signal;HPM_P1;HPM_P2
2024/01/21 00:00:19;;;;;;;;;;;;;;;7.38;37.75;101407.59;4476609;32;33686;-83
2024/01/21 00:02:47;;;;;;;;;;;;;;;7.41;37.42;101406.94;4474152;32;34579;-81
2024/01/21 00:05:14;;;;;;;;;;;;;;;7.87;36.64;101403.00;4472591;32;33216;-82
2024/01/21 00:07:41;;;;;;;;;;;;;;;7.84;36.92;101406.22;4470340;32;34484;-81
2024/01/21 00:10:09;;;;;;;;;;;;;;;8.20;36.41;101409.06;4466088;32;34056;-83
2024/01/21 00:12:37;;;;;;;;;;;;;;;8.28;36.13;101413.16;4473393;32;34268;-83
2024/01/21 00:15:04;;;;;;;;;;;;;;;8.00;36.28;101410.94;4474992;32;33468;-81
2024/01/21 00:17:32;;;;;;;;;;;;;;;7.97;36.33;101409.78;4476681;32;33409;-82
2024/01/21 00:19:59;;;;;;;;;;;;;;;8.49;35.33;101407.94;4471712;32;33986;-83
2024/01/21 00:22:27;;;;;;;;;;;;;;;7.80;36.45;101398.09;4463529;32;33593;-82
2024/01/21 00:24:54;;;;;;;;;;;;;;;7.67;36.77;101394.53;4472684;32;33188;-81
2024/01/21 00:27:22;;;;;;;;;;;;;;;7.67;36.70;101394.53;4465863;32;34862;-80
2024/01/21 00:29:49;;;;;;;;;;;;;;;7.60;36.88;101401.62;4472879;32;34607;-82
2024/01/21 00:32:16;;;;;;;;;;;;;;;7.00;37.68;101397.56;4482004;32;34181;-82
2024/01/21 00:34:44;;;;;;;;;;;;;;;7.33;37.27;101405.41;4467282;32;33702;-80
2024/01/21 00:37:11;;;;;;;;;;;;;;;7.50;36.64;101410.28;4474009;32;34734;-81
2024/01/21 00:39:38;;;;;;;;;;;;;;;7.38;37.00;101415.34;4471361;32;34383;-83
2024/01/21 00:42:06;;;;;;;;;;;;;;;7.41;37.02;101425.00;4476733;32;33857;-84
2024/01/21 00:44:36;;;;;;;;;;;;;;;8.00;36.09;101417.78;4470323;32;33078;-83
2024/01/21 00:47:04;;;;;;;;;;;;;;;7.60;36.88;101417.13;4481655;32;34220;-82
2024/01/21 00:49:31;;;;;;;;;;;;;;;8.10;35.85;101412.59;4475535;32;34062;-81
2024/01/21 00:51:59;;;;;;;;;;;;;;;8.10;35.66;101422.03;4470932;32;34648;-84
2024/01/21 00:54:26;;;;;;;;;;;;;;;7.97;35.85;101423.59;4462405;32;33336;-83
2024/01/21 00:56:54;;;;;;;;;;;;;;;7.70;36.48;101436.81;4471187;32;33980;-81
2024/01/21 00:59:21;;;;;;;;;;;;;;;7.51;36.62;101437.88;4469370;32;34148;-80
2024/01/21 01:01:48;;;;;;;;;;;;;;;8.12;35.48;101430.78;4468557;32;33860;-81
2024/01/21 01:04:16;;;;;;;;;;;;;;;7.99;35.57;101429.78;4470233;32;33369;-81
2024/01/21 01:06:43;;;;;;;;;;;;;;;7.79;36.10;101429.84;4480164;32;34562;-83
2024/01/21 01:09:11;;;;;;;;;;;;;;;7.40;36.56;101426.69;4459191;32;33669;-83
2024/01/21 01:11:38;;;;;;;;;;;;;;;7.67;36.13;101433.22;4469783;32;32915;-83
2024/01/21 01:14:05;;;;;;;;;;;;;;;7.27;36.74;101427.31;4463097;32;33882;-82
2024/01/21 01:16:39;;;;;;;;;;;;;;;7.58;35.99;101424.72;4469057;32;33562;-82
2024/01/21 01:19:07;;;;;;;;;;;;;;;8.07;35.07;101427.81;4477216;32;34305;-82
2024/01/21 01:21:35;;;;;;;;;;;;;;;7.72;35.56;101433.59;4478377;32;34977;-83
2024/01/21 01:24:02;;;;;;;;;;;;;;;7.44;35.72;101441.62;4471682;32;33328;-84
2024/01/21 01:26:29;;;;;;;;;;;;;;;7.78;35.35;101438.34;4468757;32;33379;-83
2024/01/21 01:28:58;;;;;;;;;;;;;;;8.15;34.91;101425.84;4469613;32;34238;-83
2024/01/21 01:31:25;;;;;;;;;;;;;;;7.70;35.49;101434.25;4470126;32;34727;-82
2024/01/21 01:33:52;;;;;;;;;;;;;;;6.83;36.91;101427.03;4471103;32;33135;-79
2024/01/21 01:36:20;;;;;;;;;;;;;;;7.54;35.86;101427.81;4458283;32;33944;-81
2024/01/21 01:38:47;;;;;;;;;;;;;;;7.74;35.32;101432.03;4470988;32;33302;-84
2024/01/21 01:41:15;;;;;;;;;;;;;;;7.10;36.26;101427.56;4468445;32;33914;-80
2024/01/21 01:43:43;;;;;;;;;;;;;;;7.56;35.74;101428.84;4472221;32;33033;-81
2024/01/21 01:46:10;;;;;;;;;;;;;;;7.96;34.63;101429.53;4472097;32;34221;-81
2024/01/21 01:48:37;;;;;;;;;;;;;;;7.24;36.01;101424.50;4481414;32;33955;-81
2024/01/21 01:51:05;;;;;;;;;;;;;;;6.87;36.79;101423.03;4463213;32;34093;-83
2024/01/21 01:53:33;;;;;;;;;;;;;;;6.18;38.16;101419.63;4477588;32;34052;-80
2024/01/21 01:56:00;;;;;;;;;;;;;;;6.09;38.32;101428.34;4471526;32;34908;-83
2024/01/21 01:58:28;;;;;;;;;;;;;;;6.32;38.45;101423.41;4464471;32;33459;-80
2024/01/21 02:00:55;;;;;;;;;;;;;;;6.22;38.82;101426.84;4466072;32;33896;-82
2024/01/21 02:03:23;;;;;;;;;;;;;;;6.27;38.42;101428.16;4467853;32;33037;-83
2024/01/21 02:05:51;;;;;;;;;;;;;;;6.02;38.92;101433.69;4476634;32;34144;-83
2024/01/21 02:08:19;;;;;;;;;;;;;;;6.04;38.77;101426.13;4478367;32;33986;-81
2024/01/21 02:10:46;;;;;;;;;;;;;;;6.53;37.99;101430.44;4473075;32;34110;-84
2024/01/21 02:13:15;;;;;;;;;;;;;;;6.75;37.49;101424.56;4476566;32;33606;-82
2024/01/21 02:15:42;;;;;;;;;;;;;;;6.45;37.97;101429.78;4472418;32;34744;-83
2024/01/21 02:18:10;;;;;;;;;;;;;;;6.59;37.50;101425.81;4464647;32;34810;-82
2024/01/21 02:20:39;;;;;;;;;;;;;;;6.93;36.90;101440.69;4469771;32;33990;-81
2024/01/21 02:23:10;;;;;;;;;;;;;;;7.24;36.51;101442.53;4469923;32;33436;-84
2024/01/21 02:25:37;;;;;;;;;;;;;;;7.46;35.87;101449.50;4476298;32;33981;-81
2024/01/21 02:28:04;;;;;;;;;;;;;;;7.14;36.22;101444.19;4472148;32;33901;-81
2024/01/21 02:30:32;;;;;;;;;;;;;;;7.66;35.45;101444.28;4480449;32;34958;-81
2024/01/21 02:32:59;;;;;;;;;;;;;;;7.08;36.10;101434.28;4470023;32;33467;-82
2024/01/21 02:35:27;;;;;;;;;;;;;;;7.37;36.04;101433.25;4478128;32;34338;-83
2024/01/21 02:37:54;;;;;;;;;;;;;;;7.51;35.86;101440.44;4473875;32;34322;-82
2024/01/21 02:40:21;;;;;;;;;;;;;;;6.87;36.93;101438.50;4469760;32;32433;-82
2024/01/21 02:42:49;;;;;;;;;;;;;;;6.73;37.08;101434.75;4470367;32;33291;-82
2024/01/21 02:45:16;;;;;;;;;;;;;;;6.97;36.65;101429.87;4472788;32;33153;-81
2024/01/21 02:47:44;;;;;;;;;;;;;;;6.39;37.65;101426.66;4470060;32;33988;-81
2024/01/21 02:50:12;;;;;;;;;;;;;;;5.78;38.71;101436.63;4469583;32;34805;-82
2024/01/21 02:52:39;;;;;;;;;;;;;;;6.63;37.13;101433.03;4468078;32;34075;-81
2024/01/21 02:55:07;;;;;;;;;;;;;;;6.60;37.13;101431.88;4477572;32;34266;-81
2024/01/21 02:57:34;;;;;;;;;;;;;;;6.64;37.00;101436.50;4470096;32;32853;-81
2024/01/21 03:00:04;;;;;;;;;;;;;;;6.72;36.90;101440.66;4472495;32;34138;-83
2024/01/21 03:02:32;;;;;;;;;;;;;;;6.60;37.15;101443.06;4470176;32;33891;-84
2024/01/21 03:04:59;;;;;;;;;;;;;;;6.22;37.93;101453.50;4470641;32;33865;-82
2024/01/21 03:07:26;;;;;;;;;;;;;;;6.36;37.83;101458.97;4478626;32;34911;-84
2024/01/21 03:09:54;;;;;;;;;;;;;;;6.70;37.31;101449.91;4474209;32;34972;-84
2024/01/21 03:12:21;;;;;;;;;;;;;;;7.20;36.51;101455.91;4471773;32;32929;-84
2024/01/21 03:14:49;;;;;;;;;;;;;;;6.96;36.70;101454.75;4480160;32;34122;-83
2024/01/21 03:17:16;;;;;;;;;;;;;;;7.18;36.47;101462.62;4469769;32;33928;-82
2024/01/21 03:19:44;;;;;;;;;;;;;;;7.12;36.58;101462.09;4472354;32;33961;-85
2024/01/21 03:22:11;;;;;;;;;;;;;;;7.21;36.52;101468.03;4467985;32;34073;-85
2024/01/21 03:24:39;;;;;;;;;;;;;;;7.31;36.36;101479.16;4460186;32;33222;-84
2024/01/21 03:27:06;;;;;;;;;;;;;;;7.19;36.61;101477.31;4467798;32;33615;-81
2024/01/21 03:29:34;;;;;;;;;;;;;;;7.51;35.90;101484.28;4465345;32;34280;-83
2024/01/21 03:32:01;;;;;;;;;;;;;;;7.11;36.26;101478.34;4471241;32;34195;-83
2024/01/21 03:34:29;;;;;;;;;;;;;;;7.30;36.03;101473.06;4469518;32;33877;-83
2024/01/21 03:36:57;;;;;;;;;;;;;;;7.14;36.24;101478.59;4475058;32;34658;-84
2024/01/21 03:39:24;;;;;;;;;;;;;;;7.29;35.95;101472.16;4470542;32;32866;-85
2024/01/21 03:41:51;;;;;;;;;;;;;;;7.29;36.01;101469.59;4479627;32;32742;-81
2024/01/21 03:44:18;;;;;;;;;;;;;;;7.44;35.76;101471.66;4471023;32;34672;-81
2024/01/21 03:46:46;;;;;;;;;;;;;;;7.12;36.24;101472.41;4480499;32;34162;-82
2024/01/21 03:49:13;;;;;;;;;;;;;;;6.87;36.74;101465.16;4474727;32;35084;-81
2024/01/21 03:51:41;;;;;;;;;;;;;;;7.13;36.22;101471.66;4460241;32;33379;-81
2024/01/21 03:54:08;;;;;;;;;;;;;;;6.90;36.43;101472.25;4479650;32;34258;-83
2024/01/21 03:56:36;;;;;;;;;;;;;;;6.84;36.57;101477.78;4478493;32;33936;-81
2024/01/21 03:59:03;;;;;;;;;;;;;;;6.56;37.17;101481.28;4461718;32;32514;-81
2024/01/21 04:01:30;;;;;;;;;;;;;;;6.71;36.81;101479.16;4470429;32;33446;-83
2024/01/21 04:03:58;;;;;;;;;;;;;;;6.88;36.52;101482.44;4465912;32;34550;-81
2024/01/21 04:06:25;;;;;;;;;;;;;;;6.81;36.68;101474.03;4482644;32;33912;-81
2024/01/21 04:08:52;;;;;;;;;;;;;;;6.80;36.68;101483.44;4470248;32;33760;-84
2024/01/21 04:11:20;;;;;;;;;;;;;;;6.77;36.98;101483.16;4471737;32;33957;-81
2024/01/21 04:13:47;;;;;;;;;;;;;;;6.48;37.29;101484.09;4480459;32;34124;-81
2024/01/21 04:16:14;;;;;;;;;;;;;;;6.87;36.48;101480.59;4476749;32;34288;-81
2024/01/21 04:18:42;;;;;;;;;;;;;;;6.73;37.08;101483.66;4470464;32;33823;-83
2024/01/21 04:21:09;;;;;;;;;;;;;;;6.77;37.06;101488.31;4468124;32;34101;-81
2024/01/21 04:23:37;;;;;;;;;;;;;;;6.88;36.96;101486.69;4469429;32;35049;-82
2024/01/21 04:26:04;;;;;;;;;;;;;;;6.98;36.77;101488.38;4478769;32;34477;-83
2024/01/21 04:28:31;;;;;;;;;;;;;;;7.34;36.19;101484.53;4469579;32;34370;-85
2024/01/21 04:30:59;;;;;;;;;;;;;;;7.59;35.23;101483.28;4459043;32;32608;-82
2024/01/21 04:33:26;;;;;;;;;;;;;;;7.69;34.88;101484.94;4469401;32;34003;-84
2024/01/21 04:35:54;;;;;;;;;;;;;;;7.60;35.00;101474.75;4469747;32;34245;-84
2024/01/21 04:38:23;;;;;;;;;;;;;;;7.93;34.43;101480.87;4457838;32;33533;-81
2024/01/21 04:40:52;;;;;;;;;;;;;;;7.19;35.51;101476.44;4462982;32;34157;-80
2024/01/21 04:43:19;;;;;;;;;;;;;;;7.83;34.61;101471.50;4480912;32;35005;-82
2024/01/21 04:45:46;;;;;;;;;;;;;;;7.57;34.89;101471.94;4481435;32;35028;-84
2024/01/21 04:48:14;;;;;;;;;;;;;;;7.82;34.34;101466.19;4468008;32;34210;-84
2024/01/21 04:50:41;;;;;;;;;;;;;;;7.98;34.06;101469.28;4469051;32;33186;-82
2024/01/21 04:53:09;;;;;;;;;;;;;;;8.27;33.36;101478.50;4468787;32;33994;-83
2024/01/21 04:55:36;;;;;;;;;;;;;;;7.85;33.98;101471.63;4468946;32;33899;-84
2024/01/21 04:58:03;;;;;;;;;;;;;;;7.90;33.95;101480.66;4468911;32;34311;-81
2024/01/21 05:00:31;;;;;;;;;;;;;;;7.74;34.33;101472.41;4469235;32;33977;-82
2024/01/21 05:02:58;;;;;;;;;;;;;;;7.74;34.52;101487.87;4468930;32;34086;-82
2024/01/21 05:05:25;;;;;;;;;;;;;;;7.33;35.18;101475.00;4474044;32;33958;-81
2024/01/21 05:07:53;;;;;;;;;;;;;;;7.57;34.82;101478.72;4468720;32;33620;-81
2024/01/21 05:10:20;;;;;;;;;;;;;;;7.37;35.06;101479.66;4472674;32;33312;-82
2024/01/21 05:12:47;;;;;;;;;;;;;;;7.49;34.90;101480.66;4479735;32;34019;-81
2024/01/21 05:15:15;;;;;;;;;;;;;;;7.75;34.52;101479.38;4459983;32;33494;-84
2024/01/21 05:17:42;;;;;;;;;;;;;;;7.56;34.62;101477.84;4474139;32;34783;-83
2024/01/21 05:20:11;;;;;;;;;;;;;;;7.71;34.46;101487.63;4468124;32;33358;-82
2024/01/21 05:22:38;;;;;;;;;;;;;;;8.01;34.04;101495.31;4469299;32;34141;-82
2024/01/21 05:25:06;;;;;;;;;;;;;;;7.79;34.08;101497.81;4470468;32;34010;-83
2024/01/21 05:27:34;;;;;;;;;;;;;;;8.40;33.12;101503.59;4468189;32;33911;-81
2024/01/21 05:30:02;;;;;;;;;;;;;;;7.97;33.94;101524.22;4457904;32;33937;-81
2024/01/21 05:32:29;;;;;;;;;;;;;;;7.56;34.43;101511.37;4481188;32;32508;-84
2024/01/21 05:34:56;;;;;;;;;;;;;;;7.16;35.27;101526.00;4474797;32;34109;-81
2024/01/21 05:37:24;;;;;;;;;;;;;;;7.05;35.29;101529.34;4459282;32;33533;-80
2024/01/21 05:39:51;;;;;;;;;;;;;;;6.46;35.96;101537.12;4466859;32;31926;-83
2024/01/21 05:42:19;;;;;;;;;;;;;;;6.97;35.49;101538.09;4467945;32;34975;-84
2024/01/21 05:44:46;;;;;;;;;;;;;;;6.83;35.43;101534.31;4465275;32;32354;-83
2024/01/21 05:47:13;;;;;;;;;;;;;;;6.87;35.69;101537.28;4472246;32;34765;-82
2024/01/21 05:49:41;;;;;;;;;;;;;;;6.64;36.15;101531.78;4470477;32;32844;-81
2024/01/21 05:52:08;;;;;;;;;;;;;;;6.63;36.30;101536.03;4467951;32;33884;-83
2024/01/21 05:54:36;;;;;;;;;;;;;;;6.62;36.38;101552.25;4471495;32;34033;-85
2024/01/21 05:57:03;;;;;;;;;;;;;;;6.69;36.47;101543.41;4472612;32;33483;-83
2024/01/21 05:59:32;;;;;;;;;;;;;;;6.82;36.36;101546.28;4470018;32;34299;-82
2024/01/21 06:01:59;;;;;;;;;;;;;;;7.45;35.16;101548.22;4469767;32;33976;-84
2024/01/21 06:04:27;;;;;;;;;;;;;;;7.32;35.56;101548.87;4466420;32;35351;-84
2024/01/21 06:06:54;;;;;;;;;;;;;;;7.42;35.26;101550.56;4457741;32;34145;-82
2024/01/21 06:09:22;;;;;;;;;;;;;;;7.74;34.62;101555.84;4445908;32;33436;-82
2024/01/21 06:11:49;;;;;;;;;;;;;;;7.77;34.69;101552.66;4444509;32;34588;-82
2024/01/21 06:14:16;;;;;;;;;;;;;;;7.45;35.08;101561.12;4449284;32;33884;-83
2024/01/21 06:16:44;;;;;;;;;;;;;;;7.66;34.55;101567.19;4450371;32;34129;-82
2024/01/21 06:19:11;;;;;;;;;;;;;;;7.91;34.07;101565.00;4450402;32;33245;-81
2024/01/21 06:21:45;;;;;;;;;;;;;;;7.54;34.58;101561.91;4446933;32;34146;-83
2024/01/21 06:24:13;;;;;;;;;;;;;;;7.85;34.20;101570.56;4448456;32;33800;-83
2024/01/21 06:26:41;;;;;;;;;;;;;;;7.46;34.71;101573.25;4445650;32;33954;-81
2024/01/21 06:29:08;;;;;;;;;;;;;;;7.80;34.28;101568.34;4449650;32;33371;-80
2024/01/21 06:31:35;;;;;;;;;;;;;;;7.72;34.43;101572.87;4451599;32;32468;-85
2024/01/21 06:34:02;;;;;;;;;;;;;;;7.61;34.79;101579.72;4445785;32;34151;-82
2024/01/21 06:36:30;;;;;;;;;;;;;;;7.54;35.20;101582.53;4439453;32;34004;-82
2024/01/21 06:38:57;;;;;;;;;;;;;;;7.36;35.29;101580.94;4444893;32;33398;-82
2024/01/21 06:41:25;;;;;;;;;;;;;;;7.24;35.50;101581.72;4446877;32;33415;-81
2024/01/21 06:43:52;;;;;;;;;;;;;;;7.05;35.81;101578.28;4452591;32;34956;-83
2024/01/21 06:46:20;;;;;;;;;;;;;;;6.99;36.37;101583.84;4442460;32;34508;-84
2024/01/21 06:48:47;;;;;;;;;;;;;;;7.37;35.71;101578.50;4445026;32;33036;-82
2024/01/21 06:51:31;;;;;;;;;;;;;;;6.85;36.55;101580.03;4443730;32;34273;-81
2024/01/21 06:53:59;;;;;;;;;;;;;;;6.22;37.99;101586.37;4441348;32;34144;-80
2024/01/21 06:56:27;;;;;;;;;;;;;;;6.35;37.87;101583.25;4449590;32;34124;-82
2024/01/21 06:58:54;;;;;;;;;;;;;;;6.94;36.70;101585.09;4445850;32;33311;-83
2024/01/21 07:01:22;;;;;;;;;;;;;;;7.34;35.79;101567.97;4438535;32;34896;-85
2024/01/21 07:03:49;;;;;;;;;;;;;;;7.27;35.67;101576.81;4443967;32;34488;-83
2024/01/21 07:06:16;;;;;;;;;;;;;;;7.62;35.07;101578.94;4452185;32;35197;-84
2024/01/21 07:08:44;;;;;;;;;;;;;;;7.20;35.91;101579.63;4474046;32;33197;-84
2024/01/21 07:11:11;;;;;;;;;;;;;;;7.15;35.89;101585.19;4475725;32;32714;-84
2024/01/21 07:13:39;;;;;;;;;;;;;;;7.38;35.68;101574.25;4477033;32;34254;-82
2024/01/21 07:16:06;;;;;;;;;;;;;;;7.24;35.89;101576.56;4448736;32;33442;-83
2024/01/21 07:18:34;;;;;;;;;;;;;;;7.71;34.88;101570.16;4472234;32;33707;-84
2024/01/21 07:21:02;;;;;;;;;;;;;;;7.37;35.43;101572.47;4473840;32;33829;-81
2024/01/21 07:23:29;;;;;;;;;;;;;;;7.81;34.56;101588.25;4470969;32;34041;-81
2024/01/21 07:25:57;;;;;;;;;;;;;;;7.02;36.18;101594.41;4475140;32;33838;-84
2024/01/21 07:28:25;;;;;;;;;;;;;;;7.82;34.91;101590.03;4443018;32;33125;-81
2024/01/21 07:30:52;;;;;;;;;;;;;;;7.62;35.34;101591.81;4473235;32;33934;-83
2024/01/21 07:33:19;;;;;;;;;;;;;;;7.65;35.28;101591.22;4473533;32;35106;-82
2024/01/21 07:35:50;;;;;;;;;;;;;;;7.45;35.82;101592.06;4479804;32;33951;-83
2024/01/21 07:38:18;;;;;;;;;;;;;;;8.06;35.12;101592.09;4478070;32;32354;-84
2024/01/21 07:40:47;;;;;;;;;;;;;;;7.75;35.32;101598.94;4463598;32;33887;-82
2024/01/21 07:43:15;;;;;;;;;;;;;;;8.05;34.98;101603.22;4478600;32;34239;-82
2024/01/21 07:45:42;;;;;;;;;;;;;;;8.24;34.61;101603.03;4469284;32;34432;-83
2024/01/21 07:48:10;;;;;;;;;;;;;;;7.89;35.29;101602.69;4478700;32;33837;-83
2024/01/21 07:50:37;;;;;;;;;;;;;;;7.86;35.51;101599.84;4478269;32;33872;-83
2024/01/21 07:53:05;;;;;;;;;;;;;;;8.66;34.06;101606.50;4472061;32;34021;-82
2024/01/21 07:55:33;;;;;;;;;;;;;;;8.33;34.49;101613.25;4433625;32;780645;-82
2024/01/21 07:58:01;;;;;;;;;;;;;;;8.46;34.37;101610.94;4474735;32;34296;-85
2024/01/21 08:00:28;;;;;;;;;;;;;;;8.31;34.93;101614.78;4472338;32;33894;-83
2024/01/21 08:02:56;;;;;;;;;;;;;;;8.22;35.28;101614.03;4472027;32;33573;-83
2024/01/21 08:05:23;;;;;;;;;;;;;;;8.26;35.21;101605.75;4465264;32;34217;-84
2024/01/21 08:07:51;;;;;;;;;;;;;;;8.52;34.94;101604.44;4478063;32;34218;-85
2024/01/21 08:10:18;;;;;;;;;;;;;;;8.44;35.05;101607.31;4474816;32;34806;-83
2024/01/21 08:12:45;;;;;;;;;;;;;;;8.83;34.45;101619.09;4466130;32;33697;-85
2024/01/21 08:15:13;;;;;;;;;;;;;;;9.04;33.81;101619.03;4462622;32;33822;-85
2024/01/21 08:17:40;;;;;;;;;;;;;;;8.92;34.06;101615.44;4467687;32;33266;-85
2024/01/21 08:20:08;;;;;;;;;;;;;;;8.38;56.08;101632.59;4470278;32;35417;-82
2024/01/21 08:22:35;;;;;;;;;;;;;;;9.04;50.30;101634.53;4468139;32;34171;-84
2024/01/21 08:25:04;;;;;;;;;;;;;;;9.49;46.76;101630.28;4474708;32;32887;-85
2024/01/21 08:27:31;;;;;;;;;;;;;;;9.12;44.09;101628.28;4457319;32;33680;-84
2024/01/21 08:29:59;;;;;;;;;;;;;;;9.72;38.85;101621.72;4470087;32;34778;-85
2024/01/21 08:32:26;;;;;;;;;;;;;;;9.85;36.64;101632.25;4457487;32;32414;-83
2024/01/21 08:34:54;;;;;;;;;;;;;;;9.87;35.45;101640.09;4473779;32;35042;-83
2024/01/21 08:37:21;;;;;;;;;;;;;;;9.96;34.04;101639.12;4474018;32;31434;-84
2024/01/21 08:39:49;;;;;;;;;;;;;;;9.91;34.15;101642.16;4470987;32;32715;-82
2024/01/21 08:42:16;;;;;;;;;;;;;;;9.69;34.19;101647.37;4472914;32;33875;-84
2024/01/21 08:44:44;;;;;;;;;;;;;;;10.00;35.91;101648.94;4460616;32;35005;-83
2024/01/21 08:47:11;;;;;;;;;;;;;;;10.09;36.22;101647.84;4447757;32;32060;-82
2024/01/21 08:49:38;;;;;;;;;;;;;;;10.18;36.02;101646.87;4472594;32;34802;-83
2024/01/21 08:52:06;;;;;;;;;;;;;;;9.86;36.71;101654.75;4475769;32;33984;-83
2024/01/21 08:54:35;;;;;;;;;;;;;;;10.25;35.53;101655.97;4475002;32;33969;-84
2024/01/21 08:57:02;;;;;;;;;;;;;;;10.28;35.12;101666.59;4471309;32;33315;-84
2024/01/21 08:59:30;;;;;;;;;;;;;;;10.20;34.82;101662.53;4474095;32;34168;-84
2024/01/21 09:01:58;;;;;;;;;;;;;;;10.69;33.86;101671.41;4468502;32;33840;-83
2024/01/21 09:04:25;;;;;;;;;;;;;;;10.72;33.91;101670.72;4462985;32;34784;-85
2024/01/21 09:06:52;;;;;;;;;;;;;;;10.43;33.90;101666.88;4461864;32;33334;-82
2024/01/21 09:09:20;;;;;;;;;;;;;;;10.49;33.76;101671.59;4472596;32;34016;-82
2024/01/21 09:11:47;;;;;;;;;;;;;;;10.62;33.98;101676.91;4470821;32;34288;-82
2024/01/21 09:14:15;;;;;;;;;;;;;;;10.88;34.16;101684.03;4475273;32;34275;-81
2024/01/21 09:16:43;;;;;;;;;;;;;;;11.12;32.64;101684.91;4475367;32;33732;-82
2024/01/21 09:19:10;;;;;;;;;;;;;;;11.25;32.06;101675.44;4472982;32;32608;-78
2024/01/21 09:21:39;;;;;;;;;;;;;;;11.07;32.70;101682.78;4472282;32;33976;-80
2024/01/21 09:24:07;;;;;;;;;;;;;;;10.89;33.77;101684.94;4473234;32;34867;-83
2024/01/21 09:26:34;;;;;;;;;;;;;;;10.96;32.68;101682.00;4469421;32;33926;-80
2024/01/21 09:29:02;;;;;;;;;;;;;;;11.11;32.54;101675.34;4463057;32;34023;-80
2024/01/21 09:31:29;;;;;;;;;;;;;;;11.21;32.27;101674.31;4476531;32;34292;-78
2024/01/21 09:33:59;;;;;;;;;;;;;;;11.17;32.96;101677.50;4461330;32;34105;-80
2024/01/21 09:36:27;;;;;;;;;;;;;;;11.39;32.02;101677.31;4469349;32;31449;-79
2024/01/21 09:38:55;;;;;;;;;;;;;;;11.32;32.56;101672.47;4469957;32;33635;-83
2024/01/21 09:41:25;;;;;;;;;;;;;;;10.89;49.62;101684.94;4471917;32;33528;-81
2024/01/21 09:43:53;;;;;;;;;;;;;;;10.48;44.68;101685.34;4462426;32;35057;-80
2024/01/21 09:46:22;;;;;;;;;;;;;;;10.17;42.41;101690.75;4451200;32;33323;-82
2024/01/21 09:48:50;;;;;;;;;;;;;;;10.47;40.60;101692.25;4458766;32;34956;-82
2024/01/21 09:51:20;;;;;;;;;;;;;;;10.59;40.13;101693.16;4468396;32;34304;-83
2024/01/21 09:53:48;;;;;;;;;;;;;;;9.47;42.36;101688.78;4475953;32;33234;-81
2024/01/21 09:56:16;;;;;;;;;;;;;;;10.69;39.57;101691.25;4461441;32;32230;-81
2024/01/21 09:58:45;;;;;;;;;;;;;;;11.01;39.79;101696.22;4465239;32;34154;-83
2024/01/21 10:01:12;;;;;;;;;;;;;;;11.53;36.32;101683.50;4466023;32;34642;-81
2024/01/21 10:03:40;;;;;;;;;;;;;;;11.82;37.42;101677.78;4462635;32;34101;-82
2024/01/21 10:06:07;;;;;;;;;;;;;;;11.49;37.69;101679.81;4478830;32;33741;-81
2024/01/21 10:08:42;;;;;;;;;;;;;;;11.50;35.31;101684.19;4477840;32;33848;-80
2024/01/21 10:11:12;;;;;;;;;;;;;;;12.09;35.48;101673.63;4453261;32;32411;-84
2024/01/21 10:13:42;;;;;;;;;;;;;;;11.80;36.33;101674.16;4475011;32;33912;-84
2024/01/21 10:16:12;;;;;;;;;;;;;;;11.32;38.58;101677.66;4468455;32;33136;-82
2024/01/21 10:18:39;;;;;;;;;;;;;;;10.88;39.23;101693.53;4462179;32;34864;-80
2024/01/21 10:21:07;;;;;;;;;;;;;;;11.40;46.44;101686.94;4463865;32;34818;-80
2024/01/21 10:23:35;;;;;;;;;;;;;;;11.21;39.31;101687.28;4471998;32;35155;-82
2024/01/21 10:26:02;;;;;;;;;;;;;;;12.11;36.21;101676.31;4459741;32;33303;-80
2024/01/21 10:28:32;;;;;;;;;;;;;;;12.28;35.21;101675.75;4459393;32;35503;-82
2024/01/21 10:31:00;;;;;;;;;;;;;;;10.68;39.13;101684.25;4477613;32;33594;-81
2024/01/21 10:33:28;;;;;;;;;;;;;;;11.88;35.78;101678.19;4474051;32;33805;-78
2024/01/21 10:35:56;;;;;;;;;;;;;;;13.03;30.49;101669.44;4461996;32;32868;-82
2024/01/21 10:38:24;;;;;;;;;;;;;;;13.24;31.40;101671.63;4466653;32;33834;-82
2024/01/21 10:40:51;;;;;;;;;;;;;;;13.52;30.18;101671.69;4463179;32;34292;-80
2024/01/21 10:43:18;;;;;;;;;;;;;;;13.83;28.52;101674.53;4460580;32;35090;-80
2024/01/21 10:45:50;;;;;;;;;;;;;;;13.80;28.31;101671.72;4476362;32;33788;-82
2024/01/21 10:48:19;;;;;;;;;;;;;;;14.09;26.93;101680.41;4461840;32;32804;-82
2024/01/21 10:50:47;;;;;;;;;;;;;;;13.71;27.45;101666.84;4472759;32;33982;-80
2024/01/21 10:53:16;;;;;;;;;;;;;;;13.73;27.60;101674.72;4475040;32;33792;-80
2024/01/21 10:55:44;;;;;;;;;;;;;;;13.66;27.75;101676.06;4460860;32;33617;-81
2024/01/21 10:58:13;;;;;;;;;;;;;;;13.72;27.69;101673.84;4462518;32;32440;-81
2024/01/21 11:00:41;;;;;;;;;;;;;;;13.94;27.75;101673.44;4448657;32;34832;-81
2024/01/21 11:03:25;;;;;;;;;;;;;;;13.66;27.82;101672.56;4473571;32;34212;-79
2024/01/21 11:06:03;;;;;;;;;;;;;;;13.17;28.38;101678.13;4460435;32;33168;-82
2024/01/21 11:08:31;;;;;;;;;;;;;;;13.32;28.01;101675.66;4477250;32;34013;-81
2024/01/21 11:11:02;;;;;;;;;;;;;;;13.94;27.12;101676.03;4460586;32;34196;-81
2024/01/21 11:13:41;;;;;;;;;;;;;;;13.47;27.88;101671.41;4449433;32;32366;-82
2024/01/21 11:16:26;;;;;;;;;;;;;;;13.62;27.82;101683.56;4475977;32;33641;-79
2024/01/21 11:18:57;;;;;;;;;;;;;;;13.60;27.44;101677.37;4470988;32;35025;-79
2024/01/21 11:21:25;;;;;;;;;;;;;;;13.65;28.64;101675.97;4475917;32;34600;-82
2024/01/21 11:24:03;;;;;;;;;;;;;;;13.99;37.94;101680.66;4473068;32;33298;-80
2024/01/21 11:26:31;;;;;;;;;;;;;;;13.73;32.61;101674.72;4476279;32;33813;-80
2024/01/21 11:29:03;;;;;;;;;;;;;;;14.13;33.06;101666.75;4475091;32;35028;-81
2024/01/21 11:31:33;;;;;;;;;;;;;;;14.23;34.92;101665.59;4481660;32;34175;-80
2024/01/21 11:34:10;;;;;;;;;;;;;;;14.47;32.85;101674.00;4472236;32;34315;-80
2024/01/21 11:36:38;;;;;;;;;;;;;;;13.90;33.60;101667.97;4482501;32;32631;-79
2024/01/21 11:39:08;;;;;;;;;;;;;;;13.92;32.53;101667.25;4478894;32;33920;-79
2024/01/21 11:41:42;;;;;;;;;;;;;;;14.08;41.33;101668.16;4473265;32;33949;-79
2024/01/21 11:44:22;;;;;;;;;;;;;;;14.85;37.08;101676.22;4478260;32;33851;-80
2024/01/21 11:46:56;;;;;;;;;;;;;;;14.82;30.07;101673.47;4447293;32;33943;-80
2024/01/21 11:49:24;;;;;;;;;;;;;;;15.31;50.71;101673.59;4475088;32;33793;-80
2024/01/21 11:51:52;;;;;;;;;;;;;;;15.95;32.00;101664.88;4482276;32;33766;-81
2024/01/21 11:54:21;;;;;;;;;;;;;;;16.37;25.14;101659.19;4469797;32;35080;-80
2024/01/21 11:56:50;;;;;;;;;;;;;;;15.84;25.57;101661.72;4472847;32;33896;-82
2024/01/21 11:59:17;;;;;;;;;;;;;;;15.82;46.01;101671.19;4479546;32;34892;-81
2024/01/21 12:01:45;;;;;;;;;;;;;;;14.97;35.98;101668.22;4473945;32;34174;-79
2024/01/21 12:04:12;;;;;;;;;;;;;;;14.47;33.70;101663.56;4460424;32;34512;-79
2024/01/21 12:06:44;;;;;;;;;;;;;;;13.92;33.35;101651.59;4473258;32;32232;-81
2024/01/21 12:09:12;;;;;;;;;;;;;;;13.82;34.90;101654.47;4462169;32;34258;-80
2024/01/21 12:11:40;;;;;;;;;;;;;;;14.24;32.00;101650.06;4463186;32;34038;-81
2024/01/21 12:14:09;;;;;;;;;;;;;;;14.25;31.15;101657.06;4463043;32;33610;-81
2024/01/21 12:16:37;;;;;;;;;;;;;;;15.00;30.81;101650.13;4461335;32;31506;-80
2024/01/21 12:19:04;;;;;;;;;;;;;;;14.30;31.71;101653.03;4470100;32;34735;-81
2024/01/21 12:21:32;;;;;;;;;;;;;;;14.06;32.14;101654.16;4474832;32;34037;-81
2024/01/21 12:24:00;;;;;;;;;;;;;;;14.53;41.98;101658.69;4476053;32;32605;-82
2024/01/21 12:26:27;;;;;;;;;;;;;;;13.99;33.66;101652.00;4472168;32;33745;-81
2024/01/21 12:28:58;;;;;;;;;;;;;;;13.92;31.98;101654.22;4464783;32;33849;-81
2024/01/21 12:31:27;;;;;;;;;;;;;;;14.45;40.08;101666.06;4459098;32;32469;-79
2024/01/21 12:33:55;;;;;;;;;;;;;;;14.28;32.84;101659.84;4473939;32;34996;-81
2024/01/21 12:36:22;;;;;;;;;;;;;;;14.44;33.00;101653.81;4471960;32;32866;-81
2024/01/21 12:38:50;;;;;;;;;;;;;;;14.52;31.40;101647.34;4460255;32;33681;-81
2024/01/21 12:41:18;;;;;;;;;;;;;;;14.36;31.57;101655.97;4448944;32;34009;-81
2024/01/21 12:43:46;;;;;;;;;;;;;;;14.53;32.11;101661.31;4470000;32;34488;-82
2024/01/21 12:46:13;;;;;;;;;;;;;;;14.24;32.31;101655.28;4471471;32;33726;-81